createdAt,value
2019-06-10T00:02:50.679Z,24.75
2019-06-10T00:05:55.907Z,24.88
2019-06-10T00:09:04.591Z,24.91
2019-06-10T00:12:12.727Z,24.74
2019-06-10T00:15:18.357Z,24.44
2019-06-10T00:18:38.759Z,24.72
2019-06-10T00:21:32.428Z,24.70
2019-06-10T00:24:40.747Z,24.75
2019-06-10T00:27:45.540Z,24.45
2019-06-10T00:30:51.689Z,24.62
2019-06-10T00:33:58.637Z,24.54
2019-06-10T00:37:06.284Z,24.77
2019-06-10T00:40:14.100Z,24.78
2019-06-10T00:43:21.388Z,24.70
2019-06-10T00:46:27.321Z,24.61
2019-06-10T00:49:33.081Z,24.63
2019-06-10T00:52:41.460Z,24.45
2019-06-10T00:55:46.167Z,24.32
2019-06-10T00:58:51.850Z,24.47
2019-06-10T01:01:57.529Z,24.57
2019-06-10T01:05:03.220Z,24.54
2019-06-10T01:08:08.862Z,24.54
2019-06-10T01:11:21.567Z,24.59
2019-06-10T01:14:21.940Z,24.60
2019-06-10T01:17:27.642Z,24.61
2019-06-10T01:20:33.361Z,24.43
2019-06-10T01:23:39.009Z,24.51
2019-06-10T01:26:46.408Z,24.47
2019-06-10T01:29:52.141Z,24.49
2019-06-10T01:32:57.827Z,24.59
2019-06-10T01:36:03.536Z,24.52
2019-06-10T01:39:11.594Z,24.29
2019-06-10T01:42:17.202Z,24.40
2019-06-10T01:45:23.099Z,24.45
2019-06-10T01:48:41.460Z,24.40
2019-06-10T01:51:36.186Z,24.51
2019-06-10T01:54:42.140Z,24.60
2019-06-10T01:57:48.888Z,24.59
2019-06-10T02:01:02.126Z,24.56
2019-06-10T02:04:11.583Z,24.46
2019-06-10T02:07:18.476Z,24.60
2019-06-10T02:10:23.583Z,24.67
2019-06-10T02:13:33.242Z,24.54
2019-06-10T02:16:41.308Z,24.67
2019-06-10T02:19:46.531Z,24.74
2019-06-10T02:22:52.176Z,24.57
2019-06-10T02:25:57.861Z,24.61
2019-06-10T02:29:03.586Z,24.58
2019-06-10T02:32:12.440Z,24.27
2019-06-10T02:35:27.226Z,24.30
2019-06-10T02:38:33.204Z,24.14
2019-06-10T02:41:36.063Z,24.20
2019-06-10T02:44:40.378Z,24.14
2019-06-10T02:47:46.072Z,24.28
2019-06-10T02:51:06.185Z,24.19
2019-06-10T02:54:15.584Z,24.30
2019-06-10T02:57:24.627Z,24.13
2019-06-10T03:00:39.558Z,24.33
2019-06-10T03:03:42.929Z,24.20
2019-06-10T03:06:44.817Z,24.19
2019-06-10T03:09:49.452Z,24.37
2019-06-10T03:12:55.149Z,24.14
2019-06-10T03:16:16.218Z,24.25
2019-06-10T03:19:39.766Z,24.20
2019-06-10T03:22:29.254Z,24.28
2019-06-10T03:25:34.996Z,24.25
2019-06-10T03:28:42.790Z,24.24
2019-06-10T03:31:48.739Z,24.14
2019-06-10T03:34:55.128Z,24.27
2019-06-10T03:38:02.993Z,24.18
2019-06-10T03:41:08.401Z,24.29
2019-06-10T03:44:14.071Z,24.36
2019-06-10T03:47:19.726Z,24.44
2019-06-10T03:50:27.121Z,24.30
2019-06-10T03:53:33.604Z,24.52
2019-06-10T03:56:39.638Z,24.40
2019-06-10T03:59:45.414Z,24.46
2019-06-10T04:02:53.118Z,24.50
2019-06-10T04:05:58.496Z,24.55
2019-06-10T04:09:05.425Z,24.73
2019-06-10T04:12:12.570Z,24.78
2019-06-10T04:15:19.691Z,24.63
2019-06-10T04:18:27.870Z,24.83
2019-06-10T04:21:33.161Z,24.77
2019-06-10T04:24:38.809Z,24.80
2019-06-10T04:27:44.618Z,24.90
2019-06-10T04:30:50.337Z,24.95
2019-06-10T04:33:56.006Z,24.91
2019-06-10T04:37:03.135Z,24.92
2019-06-10T04:40:09.732Z,24.81
2019-06-10T04:43:15.387Z,24.95
2019-06-10T04:46:23.662Z,24.95
2019-06-10T04:49:29.779Z,24.96
2019-06-10T04:52:36.033Z,25.00
2019-06-10T04:55:43.139Z,24.94
2019-06-10T04:58:49.074Z,25.14
2019-06-10T05:01:54.778Z,25.35
2019-06-10T05:05:02.964Z,25.49
2019-06-10T05:08:07.817Z,25.35
2019-06-10T05:11:13.516Z,25.49
2019-06-10T05:14:19.406Z,25.52
2019-06-10T05:17:27.570Z,25.65
2019-06-10T05:20:51.084Z,25.50
2019-06-10T05:23:42.757Z,25.39
2019-06-10T05:26:48.004Z,25.20
2019-06-10T05:29:53.744Z,25.53
2019-06-10T05:32:59.410Z,25.66
2019-06-10T05:36:06.593Z,25.70
2019-06-10T05:39:12.314Z,25.82
2019-06-10T05:42:18.015Z,25.55
2019-06-10T05:45:25.839Z,25.60
2019-06-10T05:48:33.053Z,25.73
2019-06-10T05:51:42.313Z,25.71
2019-06-10T05:54:48.314Z,25.65
2019-06-10T05:57:53.980Z,25.44
2019-06-10T06:00:59.670Z,25.52
2019-06-10T06:04:05.438Z,25.43
2019-06-10T06:07:12.893Z,25.44
2019-06-10T06:10:18.774Z,25.50
2019-06-10T06:13:25.367Z,25.43
2019-06-10T06:16:33.110Z,25.46
2019-06-10T06:19:38.950Z,25.72
2019-06-10T06:22:44.559Z,25.73
2019-06-10T06:25:52.964Z,25.85
2019-06-10T06:28:57.754Z,25.98
2019-06-10T06:32:05.516Z,26.22
2019-06-10T06:35:12.788Z,26.30
2019-06-10T06:38:18.448Z,27.76
2019-06-10T06:41:24.217Z,28.49
2019-06-10T06:44:32.464Z,28.21
2019-06-10T06:47:37.756Z,28.35
2019-06-10T06:51:00.252Z,28.25
2019-06-10T06:53:56.241Z,28.19
2019-06-10T06:57:03.238Z,28.26
2019-06-10T07:00:34.243Z,28.59
2019-06-10T07:03:15.601Z,29.18
2019-06-10T07:06:23.046Z,28.75
2019-06-10T07:09:33.079Z,28.06
2019-06-10T07:12:39.487Z,28.07
2019-06-10T07:15:47.639Z,27.77
2019-06-10T07:18:54.136Z,27.78
2019-06-10T07:22:11.419Z,27.64
2019-06-10T07:25:08.022Z,27.83
2019-06-10T07:28:14.752Z,28.04
2019-06-10T07:31:26.783Z,28.15
2019-06-10T07:34:27.873Z,27.98
2019-06-10T07:37:34.984Z,27.89
2019-06-10T07:40:45.277Z,27.94
2019-06-10T07:43:49.775Z,27.81
2019-06-10T07:46:55.666Z,27.89
2019-06-10T07:50:03.010Z,28.03
2019-06-10T07:53:09.926Z,28.07
2019-06-10T07:56:15.559Z,27.98
2019-06-10T07:59:23.308Z,28.08
2019-06-10T08:02:28.600Z,28.16
2019-06-10T08:05:35.631Z,28.08
2019-06-10T08:08:44.833Z,28.23
2019-06-10T08:11:49.198Z,28.43
2019-06-10T08:14:54.876Z,28.57
2019-06-10T08:18:04.123Z,28.78
2019-06-10T08:21:08.024Z,28.70
2019-06-10T08:24:13.672Z,28.37
2019-06-10T08:27:19.446Z,27.90
2019-06-10T08:30:27.558Z,28.03
2019-06-10T08:33:33.222Z,27.90
2019-06-10T08:36:50.423Z,27.58
2019-06-10T08:39:53.869Z,27.74
2019-06-10T08:43:00.620Z,27.62
2019-06-10T08:46:06.612Z,27.80
2019-06-10T08:49:12.722Z,27.91
2019-06-10T08:52:19.560Z,28.02
2019-06-10T08:55:25.364Z,27.99
2019-06-10T08:58:33.057Z,28.18
2019-06-10T09:01:39.478Z,28.14
2019-06-10T09:04:48.746Z,28.32
2019-06-10T09:07:54.487Z,28.64
2019-06-10T09:11:02.392Z,28.60
2019-06-10T09:14:07.892Z,28.63
2019-06-10T09:17:13.570Z,28.82
2019-06-10T09:20:22.792Z,28.66
2019-06-10T09:23:27.394Z,28.66
2019-06-10T09:26:33.891Z,28.89
2019-06-10T09:29:41.720Z,28.50
2019-06-10T09:32:51.488Z,28.54
2019-06-10T09:35:55.290Z,28.38
2019-06-10T09:39:03.759Z,28.34
2019-06-10T09:42:08.851Z,27.97
2019-06-10T09:45:15.480Z,28.03
2019-06-10T09:48:23.118Z,27.99
2019-06-10T09:51:32.236Z,28.00
2019-06-10T09:54:37.437Z,28.06
2019-06-10T09:57:45.985Z,28.17
2019-06-10T10:00:57.561Z,28.42
2019-06-10T10:04:00.775Z,29.07
2019-06-10T10:07:06.529Z,30.26
2019-06-10T10:10:13.449Z,30.49
2019-06-10T10:13:19.080Z,30.52
2019-06-10T10:16:24.770Z,30.72
2019-06-10T10:19:30.548Z,30.99
2019-06-10T10:22:36.243Z,31.35
2019-06-10T10:25:44.895Z,31.14
2019-06-10T10:28:51.835Z,30.90
2019-06-10T10:31:56.794Z,31.26
2019-06-10T10:35:03.942Z,30.87
2019-06-10T10:38:14.343Z,31.12
2019-06-10T10:41:27.561Z,31.18
2019-06-10T10:44:33.274Z,31.15
2019-06-10T10:47:39.034Z,31.52
2019-06-10T10:50:45.640Z,30.92
2019-06-10T10:54:15.582Z,30.89
2019-06-10T10:56:59.426Z,31.23
2019-06-10T11:00:06.798Z,32.14
2019-06-10T11:03:13.433Z,32.61
2019-06-10T11:06:19.454Z,32.53
2019-06-10T11:09:26.455Z,31.83
2019-06-10T11:12:34.098Z,32.32
2019-06-10T11:15:39.987Z,32.77
2019-06-10T11:18:45.687Z,33.02
2019-06-10T11:21:53.635Z,32.39
2019-06-10T11:24:59.607Z,32.32
2019-06-10T11:28:06.470Z,31.92
2019-06-10T11:31:13.782Z,31.26
2019-06-10T11:34:19.988Z,30.95
2019-06-10T11:37:25.701Z,31.54
2019-06-10T11:40:33.932Z,31.73
2019-06-10T11:43:39.455Z,32.49
2019-06-10T11:46:46.644Z,32.82
2019-06-10T11:49:54.975Z,32.72
2019-06-10T11:53:01.375Z,32.73
2019-06-10T11:56:07.516Z,32.85
2019-06-10T11:59:13.548Z,32.96
2019-06-10T12:02:19.511Z,32.84
2019-06-10T12:05:25.803Z,32.98
2019-06-10T12:08:34.235Z,32.32
2019-06-10T12:11:42.897Z,32.11
2019-06-10T12:14:47.323Z,31.42
2019-06-10T12:18:01.804Z,30.75
2019-06-10T12:21:03.577Z,29.97
2019-06-10T12:24:07.859Z,29.14
2019-06-10T12:27:13.584Z,28.74
2019-06-10T12:30:22.236Z,27.85
2019-06-10T12:33:27.446Z,27.71
2019-06-10T12:36:33.126Z,27.64
2019-06-10T12:39:39.075Z,27.72
2019-06-10T12:42:45.929Z,27.68
2019-06-10T12:45:53.014Z,27.57
2019-06-10T12:49:02.084Z,27.94
2019-06-10T12:52:07.580Z,28.06
2019-06-10T12:55:13.975Z,27.92
2019-06-10T12:58:19.653Z,27.83
2019-06-10T13:01:26.695Z,27.44
2019-06-10T13:04:33.765Z,27.30
2019-06-10T13:07:39.716Z,27.39
2019-06-10T13:10:46.745Z,27.01
2019-06-10T13:13:53.041Z,26.80
2019-06-10T13:17:00.004Z,27.20
2019-06-10T13:20:08.237Z,27.49
2019-06-10T13:23:23.303Z,27.87
2019-06-10T13:26:23.444Z,27.70
2019-06-10T13:29:29.252Z,27.92
2019-06-10T13:32:35.088Z,27.85
2019-06-10T13:35:41.754Z,28.40
2019-06-10T13:38:48.275Z,28.08
2019-06-10T13:41:54.229Z,28.22
2019-06-10T13:45:00.007Z,28.71
2019-06-10T13:48:08.402Z,29.07
2019-06-10T13:51:15.750Z,29.29
2019-06-10T13:54:22.573Z,29.44
2019-06-10T13:57:32.226Z,29.51
2019-06-10T14:00:42.694Z,29.22
2019-06-10T14:03:45.417Z,29.09
2019-06-10T14:06:56.860Z,29.24
2019-06-10T14:09:59.062Z,29.08
2019-06-10T14:13:08.772Z,28.83
2019-06-10T14:16:15.182Z,29.12
2019-06-10T14:19:23.062Z,28.70
2019-06-10T14:22:28.301Z,28.82
2019-06-10T14:25:34.012Z,28.95
2019-06-10T14:28:41.789Z,28.89
2019-06-10T14:31:48.035Z,28.59
2019-06-10T14:34:54.554Z,28.56
2019-06-10T14:38:00.210Z,28.31
2019-06-10T14:41:06.574Z,28.42
2019-06-10T14:44:16.064Z,28.49
2019-06-10T14:47:19.842Z,28.74
2019-06-10T14:50:25.637Z,28.89
2019-06-10T14:53:33.736Z,28.96
2019-06-10T14:56:50.772Z,28.66
2019-06-10T14:59:46.067Z,28.91
2019-06-10T15:02:53.781Z,28.77
2019-06-10T15:05:59.188Z,28.91
2019-06-10T15:09:07.432Z,28.91
2019-06-10T15:12:15.556Z,28.80
2019-06-10T15:15:23.377Z,28.96
2019-06-10T15:18:28.334Z,28.91
2019-06-10T15:21:33.973Z,28.89
2019-06-10T15:24:39.663Z,28.95
2019-06-10T15:27:45.386Z,29.05
2019-06-10T15:30:52.454Z,28.83
2019-06-10T15:33:58.476Z,28.61
2019-06-10T15:37:04.256Z,28.58
2019-06-10T15:40:14.023Z,28.66
2019-06-10T15:43:18.130Z,28.64
2019-06-10T15:46:23.938Z,28.69
2019-06-10T15:49:32.600Z,28.54
2019-06-10T15:52:38.822Z,28.70
2019-06-10T15:56:09.116Z,28.81
2019-06-10T15:58:52.214Z,28.84
2019-06-10T16:01:58.531Z,28.97
2019-06-10T16:05:04.450Z,29.07
2019-06-10T16:08:12.532Z,28.97
2019-06-10T16:11:18.898Z,29.42
2019-06-10T16:14:25.443Z,29.49
2019-06-10T16:17:33.214Z,29.85
2019-06-10T16:20:38.674Z,29.82
2019-06-10T16:23:44.347Z,29.90
2019-06-10T16:26:52.436Z,29.94
2019-06-10T16:29:57.397Z,29.87
2019-06-10T16:33:03.033Z,29.67
2019-06-10T16:36:08.755Z,29.83
2019-06-10T16:39:14.923Z,29.71
2019-06-10T16:42:22.977Z,29.71
2019-06-10T16:45:30.928Z,29.36
2019-06-10T16:48:35.440Z,29.35
2019-06-10T16:51:42.917Z,29.43
2019-06-10T16:54:48.462Z,29.35
2019-06-10T16:57:59.206Z,29.19
2019-06-10T17:01:03.485Z,28.76
2019-06-10T17:04:08.941Z,28.64
2019-06-10T17:07:14.602Z,28.56
2019-06-10T17:10:21.764Z,28.37
2019-06-10T17:13:30.317Z,28.19
2019-06-10T17:16:36.097Z,28.05
2019-06-10T17:19:41.791Z,28.03
2019-06-10T17:22:47.502Z,28.00
2019-06-10T17:25:55.802Z,27.70
2019-06-10T17:29:02.816Z,27.62
2019-06-10T17:32:08.612Z,27.53
2019-06-10T17:35:20.080Z,27.40
2019-06-10T17:38:26.891Z,27.30
2019-06-10T17:41:35.260Z,27.29
2019-06-10T17:44:42.724Z,27.33
2019-06-10T17:47:48.640Z,27.30
2019-06-10T17:50:54.462Z,27.17
2019-06-10T17:54:02.475Z,27.11
2019-06-10T17:57:08.247Z,26.66
2019-06-10T18:00:15.103Z,26.74
2019-06-10T18:03:23.161Z,26.80
2019-06-10T18:06:29.586Z,26.88
2019-06-10T18:09:37.061Z,27.01
2019-06-10T18:12:42.992Z,26.96
2019-06-10T18:15:48.697Z,26.86
2019-06-10T18:18:54.420Z,26.69
2019-06-10T18:22:00.220Z,26.83
2019-06-10T18:25:06.172Z,26.83
2019-06-10T18:28:12.200Z,26.86
2019-06-10T18:31:18.757Z,26.86
2019-06-10T18:34:25.686Z,26.75
2019-06-10T18:37:34.462Z,26.56
2019-06-10T18:40:39.871Z,26.63
2019-06-10T18:43:46.295Z,26.51
2019-06-10T18:46:51.975Z,26.63
2019-06-10T18:49:57.654Z,26.44
2019-06-10T18:53:04.335Z,26.29
2019-06-10T18:56:12.668Z,26.34
2019-06-10T18:59:21.257Z,26.24
2019-06-10T19:02:26.434Z,26.36
2019-06-10T19:05:33.528Z,26.45
2019-06-10T19:08:41.379Z,26.53
2019-06-10T19:11:47.744Z,26.46
2019-06-10T19:14:55.354Z,26.48
2019-06-10T19:18:03.175Z,26.41
2019-06-10T19:21:08.926Z,26.44
2019-06-10T19:24:16.866Z,26.49
2019-06-10T19:27:23.704Z,26.56
2019-06-10T19:30:31.864Z,26.41
2019-06-10T19:33:39.269Z,26.47
2019-06-10T19:36:45.846Z,26.40
2019-06-10T19:39:54.090Z,26.31
2019-06-10T19:42:59.098Z,26.29
2019-06-10T19:46:07.240Z,26.44
2019-06-10T19:49:13.452Z,26.23
2019-06-10T19:52:23.329Z,26.20
2019-06-10T19:55:27.982Z,26.14
2019-06-10T19:58:34.203Z,26.14
2019-06-10T20:01:41.892Z,26.20
2019-06-10T20:04:47.273Z,26.08
2019-06-10T20:07:53.455Z,26.25
2019-06-10T20:10:59.713Z,26.27
2019-06-10T20:14:07.365Z,26.26
2019-06-10T20:17:13.536Z,26.27
2019-06-10T20:20:22.312Z,26.26
2019-06-10T20:23:27.297Z,26.14
2019-06-10T20:26:33.164Z,26.05
2019-06-10T20:29:40.487Z,25.90
2019-06-10T20:32:51.852Z,25.91
2019-06-10T20:35:56.191Z,25.77
2019-06-10T20:39:01.874Z,25.89
2019-06-10T20:42:09.086Z,25.88
2019-06-10T20:45:15.009Z,25.89
2019-06-10T20:48:22.474Z,25.73
2019-06-10T20:51:28.078Z,25.78
2019-06-10T20:54:33.746Z,25.85
2019-06-10T20:57:52.114Z,25.49
2019-06-10T21:00:51.865Z,25.44
2019-06-10T21:03:54.443Z,25.65
2019-06-10T21:07:02.490Z,25.79
2019-06-10T21:10:09.881Z,25.78
2019-06-10T21:13:15.724Z,25.81
2019-06-10T21:16:23.008Z,25.79
2019-06-10T21:19:28.726Z,25.75
2019-06-10T21:22:34.447Z,25.61
2019-06-10T21:25:41.205Z,25.63
2019-06-10T21:28:49.229Z,25.72
2019-06-10T21:31:55.211Z,25.67
2019-06-10T21:35:03.105Z,25.78
2019-06-10T21:38:08.437Z,25.73
2019-06-10T21:41:14.102Z,25.63
2019-06-10T21:44:19.794Z,25.45
2019-06-10T21:47:25.491Z,25.41
2019-06-10T21:50:33.433Z,25.51
2019-06-10T21:53:38.642Z,25.27
2019-06-10T21:56:45.643Z,25.24
2019-06-10T21:59:54.984Z,25.26
2019-06-10T22:02:59.103Z,25.19
2019-06-10T22:06:04.870Z,24.71
2019-06-10T22:09:12.460Z,24.84
2019-06-10T22:12:18.520Z,24.81
2019-06-10T22:15:24.328Z,24.81
2019-06-10T22:18:32.208Z,24.79
2019-06-10T22:21:38.118Z,24.69
2019-06-10T22:24:44.694Z,24.75
2019-06-10T22:27:50.353Z,24.39
2019-06-10T22:31:15.131Z,24.75
2019-06-10T22:34:04.532Z,24.74
2019-06-10T22:37:12.373Z,24.57
2019-06-10T22:40:17.973Z,24.84
2019-06-10T22:43:23.765Z,24.45
2019-06-10T22:46:29.431Z,24.55
2019-06-10T22:49:35.122Z,24.57
2019-06-10T22:52:42.582Z,24.73
2019-06-10T22:55:50.902Z,24.71
2019-06-10T22:58:57.465Z,24.70
2019-06-10T23:02:03.210Z,24.65
2019-06-10T23:05:09.363Z,24.69
2019-06-10T23:08:15.043Z,24.55
2019-06-10T23:11:20.729Z,24.57
2019-06-10T23:14:26.388Z,24.40
2019-06-10T23:17:32.099Z,24.37
2019-06-10T23:20:37.801Z,24.45
2019-06-10T23:23:43.487Z,24.26
2019-06-10T23:26:49.725Z,24.12
2019-06-10T23:29:56.008Z,24.24
2019-06-10T23:33:02.978Z,24.09
2019-06-10T23:36:08.666Z,24.38
2019-06-10T23:39:14.356Z,24.36
2019-06-10T23:42:20.016Z,24.25
2019-06-10T23:45:25.726Z,24.44
2019-06-10T23:48:33.004Z,24.19
2019-06-10T23:51:38.763Z,24.04
2019-06-10T23:54:44.457Z,24.33
2019-06-10T23:57:50.111Z,24.23
